Time;durP1;ratioP1;P1;durP2;ratioP2;P2;SDS_P1;SDS_P2;PMS_P1;PMS_P2;Temp;Humidity;BMP_temperature;BMP_pressure;BME280_temperature;BME280_humidity;BME280_pressure;Samples;Min_cycle;Max_cycle;Signal;HPM_P1;HPM_P2
2023/06/29 00:02:12;;;;;;;43.23;27.90;;;;;;;;;;4971688;28;20421;-61
2023/06/29 00:04:38;;;;;;;37.97;27.27;;;;;;;;;;4971866;28;20061;-61
2023/06/29 00:07:04;;;;;;;34.33;25.70;;;;;;;;;;4970848;28;20536;-61
2023/06/29 00:09:30;;;;;;;36.20;26.40;;;;;;;;;;4971687;28;20145;-61
2023/06/29 00:11:56;;;;;;;36.70;25.80;;;;;;;;;;4971957;28;20084;-61
2023/06/29 00:14:22;;;;;;;37.43;26.93;;;;;;;;;;4971482;28;20130;-61
2023/06/29 00:16:50;;;;;;;35.33;26.37;;;;;;;;;;4971451;28;20099;-61
2023/06/29 00:19:16;;;;;;;41.27;28.07;;;;;;;;;;4970890;28;20089;-62
2023/06/29 00:21:42;;;;;;;38.20;26.93;;;;;;;;;;4971281;28;20046;-61
2023/06/29 00:24:11;;;;;;;39.50;27.13;;;;;;;;;;4971085;28;20105;-61
2023/06/29 00:26:38;;;;;;;38.30;26.40;;;;;;;;;;4953673;28;20086;-61
2023/06/29 00:29:04;;;;;;;38.67;28.17;;;;;;;;;;4971320;28;20054;-61
2023/06/29 00:31:29;;;;;;;38.20;27.83;;;;;;;;;;4970680;28;20054;-61
2023/06/29 00:33:55;;;;;;;37.33;27.50;;;;;;;;;;4970922;28;20058;-61
2023/06/29 00:36:21;;;;;;;39.97;27.60;;;;;;;;;;4971206;28;20047;-61
2023/06/29 00:38:48;;;;;;;39.67;28.97;;;;;;;;;;4970538;28;20090;-61
2023/06/29 00:41:14;;;;;;;38.67;27.70;;;;;;;;;;4970486;28;20071;-61
2023/06/29 00:43:43;;;;;;;36.83;27.40;;;;;;;;;;4970222;28;20049;-61
2023/06/29 00:46:09;;;;;;;36.57;28.10;;;;;;;;;;4970885;28;20051;-61
2023/06/29 00:48:36;;;;;;;38.80;28.23;;;;;;;;;;4970830;28;20106;-61
2023/06/29 00:51:04;;;;;;;37.53;28.87;;;;;;;;;;4970811;28;20047;-61
2023/06/29 00:53:30;;;;;;;37.00;27.97;;;;;;;;;;4970663;28;20043;-61
2023/06/29 00:55:56;;;;;;;40.20;28.87;;;;;;;;;;4970213;28;20051;-61
2023/06/29 00:58:22;;;;;;;39.77;29.17;;;;;;;;;;4970826;28;20043;-61
2023/06/29 01:00:48;;;;;;;43.80;27.83;;;;;;;;;;4970189;28;20042;-61
2023/06/29 01:03:14;;;;;;;35.63;27.57;;;;;;;;;;4970599;28;20122;-61
2023/06/29 01:05:41;;;;;;;39.50;27.10;;;;;;;;;;4970273;28;20254;-61
2023/06/29 01:08:17;;;;;;;39.93;27.27;;;;;;;;;;4970336;28;20058;-61
2023/06/29 01:10:45;;;;;;;38.60;27.47;;;;;;;;;;4970499;28;20086;-61
2023/06/29 01:13:11;;;;;;;38.47;27.33;;;;;;;;;;4970402;28;20093;-62
2023/06/29 01:15:39;;;;;;;42.00;26.60;;;;;;;;;;4969775;28;20098;-61
2023/06/29 01:18:06;;;;;;;35.57;27.67;;;;;;;;;;4970766;28;20049;-61
2023/06/29 01:20:32;;;;;;;40.93;28.10;;;;;;;;;;4970100;28;20053;-61
2023/06/29 01:23:36;;;;;;;40.00;27.90;;;;;;;;;;4969764;28;20054;-61
2023/06/29 01:26:02;;;;;;;;;;;;;;;;;;4921518;28;20398;-61
2023/06/29 01:28:31;;;;;;;38.37;27.20;;;;;;;;;;4969956;28;19988;-61
2023/06/29 01:30:57;;;;;;;36.33;26.73;;;;;;;;;;4969925;28;20050;-61
2023/06/29 01:33:24;;;;;;;43.70;28.93;;;;;;;;;;4969641;28;20049;-61
2023/06/29 01:35:52;;;;;;;40.80;28.93;;;;;;;;;;4970098;28;20047;-61
2023/06/29 01:38:24;;;;;;;42.53;28.40;;;;;;;;;;4969900;28;20078;-61
2023/06/29 01:40:50;;;;;;;43.57;29.33;;;;;;;;;;4969592;28;20054;-61
2023/06/29 01:43:17;;;;;;;39.67;28.57;;;;;;;;;;4969860;28;20082;-61
2023/06/29 01:45:45;;;;;;;38.57;28.70;;;;;;;;;;4969535;28;20051;-61
2023/06/29 01:48:11;;;;;;;41.67;29.37;;;;;;;;;;4969878;28;20042;-62
2023/06/29 01:50:37;;;;;;;42.67;31.33;;;;;;;;;;4969517;28;20130;-61
2023/06/29 01:53:03;;;;;;;45.00;31.30;;;;;;;;;;4969728;28;20035;-61
2023/06/29 01:55:29;;;;;;;41.77;30.87;;;;;;;;;;4969039;28;20098;-61
2023/06/29 01:57:55;;;;;;;40.47;30.47;;;;;;;;;;4969953;28;20480;-61
2023/06/29 02:00:22;;;;;;;39.50;31.33;;;;;;;;;;4969389;28;20133;-61
2023/06/29 02:02:48;;;;;;;46.13;32.23;;;;;;;;;;4969587;28;20047;-61
2023/06/29 02:05:14;;;;;;;49.77;33.97;;;;;;;;;;4969251;28;20045;-62
2023/06/29 02:07:40;;;;;;;48.43;33.63;;;;;;;;;;4969247;28;20054;-61
2023/06/29 02:10:06;;;;;;;46.43;33.30;;;;;;;;;;4969566;28;20097;-61
2023/06/29 02:12:33;;;;;;;52.73;33.87;;;;;;;;;;4969852;28;20055;-61
2023/06/29 02:15:00;;;;;;;43.90;32.00;;;;;;;;;;4969650;28;20398;-61
2023/06/29 02:17:26;;;;;;;46.27;33.53;;;;;;;;;;4969444;28;20050;-61
2023/06/29 02:19:52;;;;;;;49.37;33.17;;;;;;;;;;4969388;28;20097;-61
2023/06/29 02:22:18;;;;;;;48.67;32.97;;;;;;;;;;4969587;28;20104;-62
2023/06/29 02:24:44;;;;;;;46.47;34.03;;;;;;;;;;4968715;28;20047;-61
2023/06/29 02:27:10;;;;;;;45.77;31.90;;;;;;;;;;4969168;28;20560;-62
2023/06/29 02:29:36;;;;;;;45.83;32.07;;;;;;;;;;4969753;28;20069;-61
2023/06/29 02:32:02;;;;;;;41.83;32.07;;;;;;;;;;4969057;28;20134;-61
2023/06/29 02:34:29;;;;;;;45.77;35.23;;;;;;;;;;4969162;28;20053;-61
2023/06/29 02:36:55;;;;;;;44.60;33.57;;;;;;;;;;4968823;28;20626;-61
2023/06/29 02:39:21;;;;;;;45.87;33.50;;;;;;;;;;4969186;28;20047;-61
2023/06/29 02:41:47;;;;;;;49.07;34.07;;;;;;;;;;4969081;28;20046;-62
2023/06/29 02:44:13;;;;;;;43.10;33.67;;;;;;;;;;4969271;28;20480;-61
2023/06/29 02:46:39;;;;;;;50.47;34.60;;;;;;;;;;4969180;28;21073;-61
2023/06/29 02:49:05;;;;;;;43.17;35.00;;;;;;;;;;4969194;28;20101;-61
2023/06/29 02:51:31;;;;;;;44.70;34.33;;;;;;;;;;4968449;28;20086;-61
2023/06/29 02:53:57;;;;;;;41.70;33.03;;;;;;;;;;4969192;28;20106;-61
2023/06/29 02:56:23;;;;;;;45.87;33.57;;;;;;;;;;4969131;28;20042;-61
2023/06/29 02:58:49;;;;;;;45.50;34.40;;;;;;;;;;4968986;28;20405;-61
2023/06/29 03:01:15;;;;;;;48.47;33.80;;;;;;;;;;4969265;28;20142;-61
2023/06/29 03:03:42;;;;;;;42.00;33.97;;;;;;;;;;4971263;28;20047;-61
2023/06/29 03:06:08;;;;;;;46.37;33.93;;;;;;;;;;4972227;28;20043;-61
2023/06/29 03:08:34;;;;;;;46.00;32.87;;;;;;;;;;4972418;28;20532;-61
2023/06/29 03:11:00;;;;;;;46.10;33.97;;;;;;;;;;4972929;28;20062;-61
2023/06/29 03:13:26;;;;;;;51.07;35.50;;;;;;;;;;4972593;28;20472;-61
2023/06/29 03:15:52;;;;;;;43.67;31.13;;;;;;;;;;4972088;28;20166;-61
2023/06/29 03:18:18;;;;;;;46.47;34.43;;;;;;;;;;4972561;28;20047;-61
2023/06/29 03:20:43;;;;;;;44.03;32.47;;;;;;;;;;4971921;28;20051;-61
2023/06/29 03:23:09;;;;;;;43.57;32.90;;;;;;;;;;4972128;28;20049;-61
2023/06/29 03:25:35;;;;;;;41.30;31.20;;;;;;;;;;4971726;28;20049;-61
2023/06/29 03:28:01;;;;;;;41.27;32.60;;;;;;;;;;4972087;28;20520;-61
2023/06/29 03:30:27;;;;;;;42.97;32.83;;;;;;;;;;4972112;28;20039;-61
2023/06/29 03:32:53;;;;;;;44.77;34.03;;;;;;;;;;4971818;28;20049;-62
2023/06/29 03:35:19;;;;;;;45.00;33.70;;;;;;;;;;4971648;28;20109;-61
2023/06/29 03:37:45;;;;;;;45.73;33.77;;;;;;;;;;4971791;28;20054;-61
2023/06/29 03:40:13;;;;;;;47.90;35.33;;;;;;;;;;4971733;28;20051;-61
2023/06/29 03:42:39;;;;;;;49.17;36.27;;;;;;;;;;4971360;28;20568;-61
2023/06/29 03:45:05;;;;;;;50.73;34.73;;;;;;;;;;4971846;28;20126;-61
2023/06/29 03:47:31;;;;;;;43.23;34.53;;;;;;;;;;4971730;28;20054;-62
2023/06/29 03:49:57;;;;;;;43.87;33.57;;;;;;;;;;4971790;28;20417;-61
2023/06/29 03:52:23;;;;;;;47.10;33.63;;;;;;;;;;4971664;28;20110;-62
2023/06/29 03:54:49;;;;;;;45.07;33.83;;;;;;;;;;4971097;28;20047;-61
2023/06/29 03:57:15;;;;;;;41.40;32.87;;;;;;;;;;4971491;28;20134;-61
2023/06/29 03:59:41;;;;;;;46.60;35.13;;;;;;;;;;4971226;28;20122;-61
2023/06/29 04:02:07;;;;;;;43.73;32.77;;;;;;;;;;4971709;28;20047;-61
2023/06/29 04:04:33;;;;;;;46.60;34.70;;;;;;;;;;4971537;28;20047;-61
2023/06/29 04:06:59;;;;;;;43.57;32.03;;;;;;;;;;4971741;28;20515;-61
2023/06/29 04:09:25;;;;;;;45.90;34.03;;;;;;;;;;4970973;28;20113;-61
2023/06/29 04:11:51;;;;;;;43.83;32.50;;;;;;;;;;4971254;28;20057;-61
2023/06/29 04:14:17;;;;;;;49.20;34.13;;;;;;;;;;4970061;28;20520;-61
2023/06/29 04:16:44;;;;;;;47.80;36.00;;;;;;;;;;4971250;28;20049;-61
2023/06/29 04:19:10;;;;;;;46.03;33.40;;;;;;;;;;4970661;28;20047;-62
2023/06/29 04:21:36;;;;;;;42.80;32.00;;;;;;;;;;4970860;28;20548;-61
2023/06/29 04:24:02;;;;;;;44.17;32.70;;;;;;;;;;4971207;28;20042;-63
2023/06/29 04:26:28;;;;;;;43.43;32.80;;;;;;;;;;4971355;28;20043;-61
2023/06/29 04:29:01;;;;;;;43.67;32.40;;;;;;;;;;4970390;28;20055;-61
2023/06/29 04:31:28;;;;;;;40.45;32.50;;;;;;;;;;4970804;28;20054;-61
2023/06/29 04:33:54;;;;;;;37.63;30.97;;;;;;;;;;4970513;28;20058;-61
2023/06/29 04:36:21;;;;;;;40.50;31.40;;;;;;;;;;4970866;28;20489;-61
2023/06/29 04:38:47;;;;;;;34.57;28.30;;;;;;;;;;4970457;28;20093;-61
2023/06/29 04:41:13;;;;;;;37.80;30.53;;;;;;;;;;4970658;28;20042;-61
2023/06/29 04:43:39;;;;;;;43.43;29.70;;;;;;;;;;4970654;28;20053;-62
2023/06/29 04:46:05;;;;;;;37.50;29.67;;;;;;;;;;4970728;28;20113;-61
2023/06/29 04:48:37;;;;;;;37.87;30.37;;;;;;;;;;4970121;28;20047;-62
2023/06/29 04:51:07;;;;;;;35.63;28.03;;;;;;;;;;4970594;28;20074;-61
2023/06/29 04:53:36;;;;;;;38.83;28.30;;;;;;;;;;4970429;28;20050;-61
2023/06/29 04:56:03;;;;;;;35.63;26.70;;;;;;;;;;4970683;28;20559;-62
2023/06/29 04:58:29;;;;;;;38.97;28.00;;;;;;;;;;4970358;28;20493;-61
2023/06/29 05:00:55;;;;;;;35.70;27.00;;;;;;;;;;4969879;28;20548;-61
2023/06/29 05:03:21;;;;;;;35.43;26.70;;;;;;;;;;4970624;28;20638;-62
2023/06/29 05:05:47;;;;;;;36.70;26.60;;;;;;;;;;4970304;28;20062;-62
2023/06/29 05:08:13;;;;;;;34.20;26.10;;;;;;;;;;4970600;28;20559;-61
2023/06/29 05:10:39;;;;;;;34.23;26.30;;;;;;;;;;4970454;28;20050;-61
2023/06/29 05:13:05;;;;;;;35.83;26.87;;;;;;;;;;4969659;28;20440;-62
2023/06/29 05:15:31;;;;;;;36.20;27.13;;;;;;;;;;4970110;28;20047;-61
2023/06/29 05:17:57;;;;;;;41.03;28.13;;;;;;;;;;4970201;28;20481;-61
2023/06/29 05:20:23;;;;;;;38.93;29.33;;;;;;;;;;4969479;28;20050;-62
2023/06/29 05:22:49;;;;;;;38.43;27.23;;;;;;;;;;4969943;28;20074;-62
2023/06/29 05:25:15;;;;;;;38.33;28.53;;;;;;;;;;4969771;28;20219;-61
2023/06/29 05:27:41;;;;;;;38.83;28.13;;;;;;;;;;4969867;28;20080;-61
2023/06/29 05:30:08;;;;;;;35.23;26.20;;;;;;;;;;4969717;28;20078;-62
2023/06/29 05:32:35;;;;;;;33.73;28.17;;;;;;;;;;4969501;28;20542;-61
2023/06/29 05:35:01;;;;;;;33.33;27.17;;;;;;;;;;4969821;28;20053;-61
2023/06/29 05:37:29;;;;;;;36.57;27.47;;;;;;;;;;4969620;28;20053;-62
2023/06/29 05:39:56;;;;;;;34.27;27.93;;;;;;;;;;4969587;28;20400;-62
2023/06/29 05:42:22;;;;;;;34.50;27.13;;;;;;;;;;4969302;28;20106;-61
2023/06/29 05:44:48;;;;;;;33.17;25.77;;;;;;;;;;4969521;28;20421;-62
2023/06/29 05:47:14;;;;;;;36.20;26.17;;;;;;;;;;4970000;28;20050;-61
2023/06/29 05:49:40;;;;;;;37.93;28.23;;;;;;;;;;4969488;28;20058;-62
2023/06/29 05:52:06;;;;;;;36.90;27.40;;;;;;;;;;4969148;28;20050;-62
2023/06/29 05:54:32;;;;;;;39.03;27.47;;;;;;;;;;4969522;28;20089;-62
2023/06/29 05:56:59;;;;;;;41.87;28.70;;;;;;;;;;4969150;28;20078;-62
2023/06/29 05:59:24;;;;;;;35.50;28.37;;;;;;;;;;4969170;28;20556;-62
2023/06/29 06:01:50;;;;;;;38.97;30.30;;;;;;;;;;4969130;28;20054;-62
2023/06/29 06:04:16;;;;;;;46.70;32.73;;;;;;;;;;4969295;28;20508;-62
2023/06/29 06:06:42;;;;;;;52.50;34.37;;;;;;;;;;4969617;28;20057;-62
2023/06/29 06:09:08;;;;;;;46.80;35.00;;;;;;;;;;4969123;28;20073;-61
2023/06/29 06:11:34;;;;;;;47.40;33.87;;;;;;;;;;4969259;28;20042;-62
2023/06/29 06:14:00;;;;;;;52.03;37.07;;;;;;;;;;4969493;28;20054;-61
2023/06/29 06:16:26;;;;;;;49.93;37.07;;;;;;;;;;4969412;28;20047;-61
2023/06/29 06:18:52;;;;;;;60.27;38.03;;;;;;;;;;4969045;28;20568;-61
2023/06/29 06:21:18;;;;;;;58.93;40.80;;;;;;;;;;4969058;28;20333;-62
2023/06/29 06:23:44;;;;;;;56.20;38.63;;;;;;;;;;4968898;28;20049;-61
2023/06/29 06:26:10;;;;;;;55.97;39.23;;;;;;;;;;4968994;28;20109;-61
2023/06/29 06:28:36;;;;;;;56.27;39.90;;;;;;;;;;4968839;28;20051;-61
2023/06/29 06:31:02;;;;;;;57.57;38.87;;;;;;;;;;4969299;28;20051;-61
2023/06/29 06:33:30;;;;;;;55.37;40.07;;;;;;;;;;4969097;28;20069;-61
2023/06/29 06:35:57;;;;;;;62.13;42.70;;;;;;;;;;4968639;28;20466;-61
2023/06/29 06:38:23;;;;;;;62.10;42.53;;;;;;;;;;4970845;28;20043;-62
2023/06/29 06:40:51;;;;;;;58.07;40.73;;;;;;;;;;4972777;28;20078;-61
2023/06/29 06:43:17;;;;;;;62.23;41.73;;;;;;;;;;4973089;28;20059;-62
2023/06/29 06:45:43;;;;;;;57.87;41.50;;;;;;;;;;4972826;28;20137;-61
2023/06/29 06:48:09;;;;;;;57.63;41.50;;;;;;;;;;4972525;28;20062;-61
2023/06/29 06:50:35;;;;;;;59.60;40.50;;;;;;;;;;4972828;28;20058;-62
2023/06/29 06:53:01;;;;;;;55.40;39.47;;;;;;;;;;4973025;28;20047;-61
2023/06/29 06:55:27;;;;;;;56.70;40.20;;;;;;;;;;4972542;28;20046;-62
2023/06/29 06:57:53;;;;;;;55.80;38.10;;;;;;;;;;4972130;28;20050;-62
2023/06/29 07:00:19;;;;;;;49.73;37.47;;;;;;;;;;4972739;28;20059;-61
2023/06/29 07:02:46;;;;;;;50.13;37.27;;;;;;;;;;4972604;28;20051;-62
2023/06/29 07:05:12;;;;;;;48.80;36.50;;;;;;;;;;4972529;28;20109;-61
2023/06/29 07:07:38;;;;;;;47.30;35.27;;;;;;;;;;4972574;28;20502;-62
2023/06/29 07:10:04;;;;;;;49.87;37.70;;;;;;;;;;4972861;28;20058;-61
2023/06/29 07:12:30;;;;;;;46.50;36.17;;;;;;;;;;4971974;28;20108;-61
2023/06/29 07:14:56;;;;;;;46.73;36.30;;;;;;;;;;4972652;28;20043;-61
2023/06/29 07:17:22;;;;;;;48.63;37.13;;;;;;;;;;4972296;28;20046;-62
2023/06/29 07:19:48;;;;;;;41.73;34.27;;;;;;;;;;4971984;28;20154;-62
2023/06/29 07:22:14;;;;;;;44.20;35.43;;;;;;;;;;4971898;28;20061;-61
2023/06/29 07:24:40;;;;;;;41.73;32.67;;;;;;;;;;4955093;28;20273;-62
2023/06/29 07:27:06;;;;;;;41.73;33.97;;;;;;;;;;4972041;28;20524;-61
2023/06/29 07:29:33;;;;;;;45.93;34.70;;;;;;;;;;4972064;28;20047;-62
2023/06/29 07:31:59;;;;;;;45.33;34.73;;;;;;;;;;4972183;28;20501;-62
2023/06/29 07:34:25;;;;;;;40.03;32.57;;;;;;;;;;4971682;28;20129;-61
2023/06/29 07:36:51;;;;;;;42.43;32.53;;;;;;;;;;4972004;28;20186;-62
2023/06/29 07:39:18;;;;;;;41.97;32.13;;;;;;;;;;4971912;28;20046;-62
2023/06/29 07:41:44;;;;;;;42.33;32.27;;;;;;;;;;4972015;28;20043;-62
2023/06/29 07:44:10;;;;;;;44.17;32.60;;;;;;;;;;4971810;28;20501;-61
2023/06/29 07:46:36;;;;;;;46.27;34.87;;;;;;;;;;4971794;28;20039;-61
2023/06/29 07:49:02;;;;;;;42.13;34.57;;;;;;;;;;4971133;28;20134;-61
2023/06/29 07:51:33;;;;;;;46.67;34.10;;;;;;;;;;4971655;28;20051;-61
2023/06/29 07:54:00;;;;;;;47.77;35.17;;;;;;;;;;4971629;28;20047;-61
2023/06/29 07:56:27;;;;;;;43.47;33.17;;;;;;;;;;4971358;28;20050;-61
2023/06/29 07:58:53;;;;;;;54.67;37.97;;;;;;;;;;4971446;28;20051;-61
2023/06/29 08:01:19;;;;;;;45.50;36.20;;;;;;;;;;4971811;28;20051;-61
2023/06/29 08:03:45;;;;;;;56.63;36.47;;;;;;;;;;4971117;28;20070;-61
2023/06/29 08:06:11;;;;;;;47.73;37.27;;;;;;;;;;4971486;28;20047;-61
2023/06/29 08:08:38;;;;;;;49.93;35.83;;;;;;;;;;4971543;28;20117;-62
2023/06/29 08:11:04;;;;;;;51.97;38.27;;;;;;;;;;4971448;28;20058;-61
2023/06/29 08:13:30;;;;;;;48.13;36.90;;;;;;;;;;4971049;28;20042;-61
2023/06/29 08:15:56;;;;;;;47.80;35.30;;;;;;;;;;4971492;28;20516;-61
2023/06/29 08:18:22;;;;;;;46.33;35.70;;;;;;;;;;4971225;28;20450;-61
2023/06/29 08:20:48;;;;;;;44.53;36.97;;;;;;;;;;4970536;28;20152;-61
2023/06/29 08:23:14;;;;;;;44.40;33.73;;;;;;;;;;4953895;28;20097;-61
2023/06/29 08:25:41;;;;;;;38.87;30.13;;;;;;;;;;4970980;28;20532;-61
2023/06/29 08:28:07;;;;;;;41.57;33.00;;;;;;;;;;4971181;28;20136;-61
2023/06/29 08:30:33;;;;;;;37.60;31.07;;;;;;;;;;4970776;28;20078;-61
2023/06/29 08:32:59;;;;;;;39.07;29.03;;;;;;;;;;4970974;28;20047;-61
2023/06/29 08:35:25;;;;;;;39.23;30.07;;;;;;;;;;4970384;28;20050;-61
2023/06/29 08:37:51;;;;;;;36.93;28.40;;;;;;;;;;4970578;28;20051;-61
2023/06/29 08:40:21;;;;;;;37.07;29.93;;;;;;;;;;4970753;28;20074;-61
2023/06/29 08:42:48;;;;;;;37.57;30.83;;;;;;;;;;4971018;28;20255;-61
2023/06/29 08:45:14;;;;;;;43.70;31.57;;;;;;;;;;4970391;28;20475;-61
2023/06/29 08:47:41;;;;;;;38.50;29.60;;;;;;;;;;4970347;28;20043;-62
2023/06/29 08:50:09;;;;;;;35.77;29.13;;;;;;;;;;4970652;28;20093;-61
2023/06/29 08:52:35;;;;;;;38.77;30.10;;;;;;;;;;4970600;28;20039;-61
2023/06/29 08:55:02;;;;;;;33.47;27.43;;;;;;;;;;4970727;28;20050;-61
2023/06/29 08:57:29;;;;;;;38.17;25.80;;;;;;;;;;4970126;28;20545;-61
2023/06/29 08:59:56;;;;;;;33.77;25.70;;;;;;;;;;4970135;28;20402;-61
2023/06/29 09:02:22;;;;;;;35.00;26.50;;;;;;;;;;4970114;28;20497;-61
2023/06/29 09:04:49;;;;;;;33.07;26.33;;;;;;;;;;4970450;28;20046;-61
2023/06/29 09:07:15;;;;;;;36.83;27.53;;;;;;;;;;4970208;28;20058;-61
2023/06/29 09:09:41;;;;;;;31.53;25.90;;;;;;;;;;4970272;28;20054;-61
2023/06/29 09:12:09;;;;;;;35.13;26.53;;;;;;;;;;4970095;28;20066;-61
2023/06/29 09:14:42;;;;;;;33.43;26.53;;;;;;;;;;4970103;28;20047;-61
2023/06/29 09:17:12;;;;;;;37.80;27.63;;;;;;;;;;4970210;28;20358;-61
2023/06/29 09:19:38;;;;;;;34.20;25.87;;;;;;;;;;4969862;28;20165;-61
2023/06/29 09:22:04;;;;;;;33.17;26.20;;;;;;;;;;4969877;28;20130;-61
2023/06/29 09:24:34;;;;;;;32.53;26.73;;;;;;;;;;4970046;28;20077;-61
2023/06/29 09:27:01;;;;;;;34.67;25.77;;;;;;;;;;4969664;28;20043;-61
2023/06/29 09:29:27;;;;;;;32.47;26.43;;;;;;;;;;4969915;28;20182;-61
2023/06/29 09:31:57;;;;;;;32.43;25.63;;;;;;;;;;4969751;28;20620;-60
2023/06/29 09:34:25;;;;;;;32.37;24.93;;;;;;;;;;4969612;28;20038;-60
2023/06/29 09:36:51;;;;;;;32.63;26.37;;;;;;;;;;4969872;28;20043;-60
2023/06/29 09:39:17;;;;;;;33.80;26.90;;;;;;;;;;4969146;28;20539;-61
2023/06/29 09:41:50;;;;;;;35.50;26.27;;;;;;;;;;4969367;28;20501;-61
2023/06/29 09:44:19;;;;;;;35.53;26.57;;;;;;;;;;4969327;28;20492;-61
2023/06/29 09:46:45;;;;;;;33.53;25.43;;;;;;;;;;4969277;28;20055;-61
2023/06/29 09:49:12;;;;;;;34.60;27.17;;;;;;;;;;4969164;28;20134;-61
2023/06/29 09:51:38;;;;;;;32.67;25.20;;;;;;;;;;4969422;28;20118;-61
2023/06/29 09:54:04;;;;;;;36.47;26.73;;;;;;;;;;4951960;28;20127;-61
2023/06/29 09:56:33;;;;;;;36.67;27.50;;;;;;;;;;4969502;28;20444;-61
2023/06/29 09:59:01;;;;;;;30.97;26.17;;;;;;;;;;4969007;28;20051;-60
2023/06/29 10:01:30;;;;;;;34.33;26.40;;;;;;;;;;4969657;28;20505;-61
2023/06/29 10:03:56;;;;;;;34.33;26.63;;;;;;;;;;4969222;28;20464;-61
2023/06/29 10:06:37;;;;;;;36.27;28.30;;;;;;;;;;4969306;28;20090;-61
2023/06/29 10:09:04;;;;;;;33.90;26.87;;;;;;;;;;4969241;28;20386;-61
2023/06/29 10:11:32;;;;;;;34.67;26.87;;;;;;;;;;4969149;28;20464;-61
2023/06/29 10:14:02;;;;;;;36.30;27.07;;;;;;;;;;4968913;28;20051;-62
2023/06/29 10:16:32;;;;;;;30.40;26.13;;;;;;;;;;4969561;28;20521;-61
2023/06/29 10:19:10;;;;;;;34.30;26.03;;;;;;;;;;4969382;28;20043;-61
2023/06/29 10:21:36;;;;;;;31.83;24.80;;;;;;;;;;4969634;28;20386;-61
2023/06/29 10:24:03;;;;;;;35.50;26.43;;;;;;;;;;4969245;28;20560;-61
2023/06/29 10:26:29;;;;;;;36.03;26.13;;;;;;;;;;4968445;28;20501;-61
2023/06/29 10:28:55;;;;;;;35.73;25.63;;;;;;;;;;4968876;28;20105;-62
2023/06/29 10:31:30;;;;;;;35.70;26.30;;;;;;;;;;4969154;28;20039;-62
2023/06/29 10:33:58;;;;;;;34.70;26.87;;;;;;;;;;4968938;28;20039;-62
2023/06/29 10:36:24;;;;;;;30.17;25.10;;;;;;;;;;4967446;28;20043;-62
2023/06/29 10:38:51;;;;;;;29.25;24.17;;;;;;;;;;4969112;28;20073;-62
2023/06/29 10:41:27;;;;;;;29.35;24.75;;;;;;;;;;4968773;28;20047;-62
2023/06/29 10:44:01;;;;;;;29.80;23.37;;;;;;;;;;4968894;28;20137;-62
2023/06/29 10:46:46;;;;;;;33.43;26.13;;;;;;;;;;4968838;28;20051;-63
2023/06/29 10:49:30;;;;;;;30.23;25.13;;;;;;;;;;4968541;28;20133;-62
2023/06/29 10:52:03;;;;;;;30.42;24.63;;;;;;;;;;4968924;28;20043;-62
2023/06/29 10:54:29;;;;;;;31.05;24.42;;;;;;;;;;4968844;28;20047;-62
2023/06/29 10:57:02;;;;;;;32.35;25.95;;;;;;;;;;4968591;28;20515;-62
2023/06/29 10:59:29;;;;;;;35.22;25.88;;;;;;;;;;4968739;28;20086;-61
2023/06/29 11:01:56;;;;;;;30.35;26.65;;;;;;;;;;4968257;28;20505;-62
2023/06/29 11:04:23;;;;;;;32.17;26.05;;;;;;;;;;4968969;28;20453;-62
2023/06/29 11:06:49;;;;;;;35.95;28.35;;;;;;;;;;4968810;28;20138;-62
2023/06/29 11:09:15;;;;;;;30.77;26.17;;;;;;;;;;4968386;28;20057;-62
2023/06/29 11:11:42;;;;;;;28.55;24.98;;;;;;;;;;4968935;28;20055;-62
2023/06/29 11:14:11;;;;;;;29.65;25.27;;;;;;;;;;4968973;28;20082;-62
2023/06/29 11:16:39;;;;;;;28.52;25.27;;;;;;;;;;4968322;28;20053;-62
2023/06/29 11:19:05;;;;;;;31.38;27.23;;;;;;;;;;4968519;28;20816;-63
2023/06/29 11:21:31;;;;;;;32.30;25.20;;;;;;;;;;4968620;28;20039;-62
2023/06/29 11:23:57;;;;;;;31.17;26.25;;;;;;;;;;4969845;28;20065;-62
2023/06/29 11:26:24;;;;;;;30.45;27.17;;;;;;;;;;4972213;28;20486;-62
2023/06/29 11:28:50;;;;;;;30.00;26.33;;;;;;;;;;4971338;28;20058;-62
2023/06/29 11:31:16;;;;;;;28.95;25.73;;;;;;;;;;4972108;28;20101;-62
2023/06/29 11:33:48;;;;;;;30.13;26.25;;;;;;;;;;4971827;28;20093;-62
2023/06/29 11:36:15;;;;;;;29.55;26.35;;;;;;;;;;4972274;28;20050;-63
2023/06/29 11:38:41;;;;;;;30.35;27.25;;;;;;;;;;4971641;28;20089;-63
2023/06/29 11:41:07;;;;;;;29.58;26.38;;;;;;;;;;4971415;28;20054;-62
2023/06/29 11:43:33;;;;;;;26.60;22.77;;;;;;;;;;4971776;28;20499;-62
2023/06/29 11:45:59;;;;;;;26.27;23.05;;;;;;;;;;4971892;28;20162;-62
2023/06/29 11:48:26;;;;;;;26.52;23.73;;;;;;;;;;4971717;28;20421;-62
2023/06/29 11:50:52;;;;;;;27.50;23.92;;;;;;;;;;4970891;28;20038;-62
2023/06/29 11:53:18;;;;;;;28.10;25.13;;;;;;;;;;4972049;28;20274;-62
2023/06/29 11:55:50;;;;;;;27.67;23.33;;;;;;;;;;4971582;28;20043;-62
2023/06/29 11:58:16;;;;;;;30.67;25.25;;;;;;;;;;4971771;28;20082;-62
2023/06/29 12:00:42;;;;;;;29.48;24.73;;;;;;;;;;4971244;28;20137;-62
2023/06/29 12:03:09;;;;;;;27.95;24.27;;;;;;;;;;4971342;28;20082;-61
2023/06/29 12:05:40;;;;;;;27.52;24.60;;;;;;;;;;4971648;28;20082;-62
2023/06/29 12:08:06;;;;;;;28.10;24.60;;;;;;;;;;4971208;28;20552;-62
2023/06/29 12:10:34;;;;;;;30.00;25.15;;;;;;;;;;4971424;28;20505;-61
2023/06/29 12:13:01;;;;;;;27.90;24.92;;;;;;;;;;4971447;28;20429;-61
2023/06/29 12:15:28;;;;;;;30.67;24.50;;;;;;;;;;4971218;28;20101;-61
2023/06/29 12:18:20;;;;;;;27.38;23.77;;;;;;;;;;4971086;28;20055;-61
2023/06/29 12:20:47;;;;;;;32.53;28.48;;;;;;;;;;4966782;28;20097;-62
2023/06/29 12:23:14;;;;;;;29.13;26.02;;;;;;;;;;4971092;28;20074;-61
2023/06/29 12:25:43;;;;;;;30.40;25.52;;;;;;;;;;4971250;28;20505;-62
2023/06/29 12:28:09;;;;;;;30.48;22.98;;;;;;;;;;4970923;28;20057;-62
2023/06/29 12:30:35;;;;;;;26.88;22.33;;;;;;;;;;4970893;28;20063;-62
2023/06/29 12:33:01;;;;;;;27.00;23.80;;;;;;;;;;4971092;28;20047;-61
2023/06/29 12:35:29;;;;;;;28.55;23.42;;;;;;;;;;4969970;28;20046;-62
2023/06/29 12:37:55;;;;;;;27.20;23.92;;;;;;;;;;4971316;28;20051;-61
2023/06/29 12:40:21;;;;;;;27.17;24.40;;;;;;;;;;4971049;28;20493;-62
2023/06/29 12:42:47;;;;;;;28.52;25.20;;;;;;;;;;4970754;28;20101;-61
2023/06/29 12:45:13;;;;;;;31.75;25.65;;;;;;;;;;4970242;28;20042;-61
2023/06/29 12:47:41;;;;;;;29.70;22.77;;;;;;;;;;4970782;28;20081;-61
2023/06/29 12:50:07;;;;;;;28.17;23.52;;;;;;;;;;4970550;28;20050;-62
2023/06/29 12:52:34;;;;;;;28.45;22.95;;;;;;;;;;4970423;28;20053;-61
2023/06/29 12:55:00;;;;;;;28.27;24.50;;;;;;;;;;4970992;28;20074;-61
2023/06/29 12:57:26;;;;;;;30.27;25.05;;;;;;;;;;4970102;28;20461;-62
2023/06/29 12:59:56;;;;;;;28.67;23.60;;;;;;;;;;4970311;28;20051;-61
2023/06/29 13:02:23;;;;;;;27.42;24.48;;;;;;;;;;4970627;28;20078;-61
2023/06/29 13:04:49;;;;;;;25.70;22.92;;;;;;;;;;4970419;28;20081;-61
2023/06/29 13:07:18;;;;;;;27.75;24.50;;;;;;;;;;4970457;28;20043;-61
2023/06/29 13:09:47;;;;;;;27.75;23.88;;;;;;;;;;4969711;28;20055;-61
2023/06/29 13:12:14;;;;;;;25.67;22.33;;;;;;;;;;4970297;28;20074;-61
2023/06/29 13:14:44;;;;;;;26.77;22.23;;;;;;;;;;4970283;28;20061;-61
2023/06/29 13:17:10;;;;;;;25.55;22.15;;;;;;;;;;4953225;28;20057;-61
2023/06/29 13:19:36;;;;;;;25.73;22.25;;;;;;;;;;4969907;28;20121;-61
2023/06/29 13:22:04;;;;;;;25.85;22.85;;;;;;;;;;4969447;28;20061;-61
2023/06/29 13:24:31;;;;;;;24.33;21.70;;;;;;;;;;4970048;28;20050;-61
2023/06/29 13:26:57;;;;;;;26.33;23.63;;;;;;;;;;4969822;28;20050;-61
2023/06/29 13:29:23;;;;;;;25.90;22.85;;;;;;;;;;4969685;28;20054;-61
2023/06/29 13:31:49;;;;;;;26.33;20.83;;;;;;;;;;4969786;28;20039;-61
2023/06/29 13:34:16;;;;;;;26.60;22.02;;;;;;;;;;4969492;28;20049;-61
2023/06/29 13:36:42;;;;;;;25.27;22.08;;;;;;;;;;4969787;28;20055;-61
2023/06/29 13:39:08;;;;;;;28.27;23.13;;;;;;;;;;4969665;28;20043;-61
2023/06/29 13:41:35;;;;;;;27.88;21.85;;;;;;;;;;4969455;28;20057;-62
2023/06/29 13:44:01;;;;;;;25.27;22.20;;;;;;;;;;4969787;28;20509;-62
2023/06/29 13:46:27;;;;;;;26.17;20.48;;;;;;;;;;4969482;28;20039;-62
2023/06/29 13:48:53;;;;;;;23.17;20.73;;;;;;;;;;4968911;28;20054;-62
2023/06/29 13:51:19;;;;;;;25.70;19.90;;;;;;;;;;4969424;28;20097;-61
2023/06/29 13:53:45;;;;;;;25.02;17.40;;;;;;;;;;4969461;28;20058;-61
2023/06/29 13:56:11;;;;;;;22.75;18.63;;;;;;;;;;4969471;28;20062;-61
2023/06/29 13:58:37;;;;;;;26.05;18.83;;;;;;;;;;4968744;28;20085;-61
2023/06/29 14:01:03;;;;;;;24.75;17.75;;;;;;;;;;4969552;28;20047;-61
2023/06/29 14:03:29;;;;;;;21.53;17.43;;;;;;;;;;4969454;28;20043;-61
2023/06/29 14:05:55;;;;;;;20.30;16.90;;;;;;;;;;4968805;28;20528;-61
2023/06/29 14:08:21;;;;;;;28.83;18.07;;;;;;;;;;4969545;28;20054;-62
2023/06/29 14:10:47;;;;;;;26.50;18.63;;;;;;;;;;4969185;28;20054;-61
2023/06/29 14:13:13;;;;;;;26.70;18.23;;;;;;;;;;4969327;28;20109;-61
2023/06/29 14:15:39;;;;;;;24.83;17.87;;;;;;;;;;4968824;28;20505;-61
2023/06/29 14:18:05;;;;;;;24.87;17.60;;;;;;;;;;4969432;28;20059;-61